createdAt,value
2023-01-13T00:01:09.946Z,86.01
2023-01-13T00:03:12.111Z,85.93
2023-01-13T00:05:14.001Z,86.09
2023-01-13T00:07:15.871Z,85.94
2023-01-13T00:09:17.632Z,85.79
2023-01-13T00:11:21.682Z,86.24
2023-01-13T00:13:23.614Z,85.57
2023-01-13T00:15:27.216Z,86.15
2023-01-13T00:17:30.416Z,85.68
2023-01-13T00:19:32.201Z,85.44
2023-01-13T00:21:34.034Z,85.83
2023-01-13T00:23:36.151Z,85.78
2023-01-13T00:25:37.948Z,85.70
2023-01-13T00:27:40.062Z,85.77
2023-01-13T00:29:43.282Z,85.57
2023-01-13T00:31:44.979Z,85.25
2023-01-13T00:33:49.209Z,85.47
2023-01-13T00:35:56.345Z,85.24
2023-01-13T00:37:58.079Z,85.21
2023-01-13T00:39:59.960Z,85.49
2023-01-13T00:42:01.898Z,85.27
2023-01-13T00:44:04.078Z,85.07
2023-01-13T00:46:08.094Z,85.14
2023-01-13T00:48:10.343Z,85.11
2023-01-13T00:50:13.635Z,84.95
2023-01-13T00:52:15.637Z,85.27
2023-01-13T00:54:17.472Z,84.84
2023-01-13T00:56:34.038Z,84.90
2023-01-13T00:58:41.110Z,85.08
2023-01-13T01:00:42.987Z,84.97
2023-01-13T01:02:44.910Z,84.77
2023-01-13T01:04:46.711Z,85.14
2023-01-13T01:06:49.813Z,85.06
2023-01-13T01:08:52.488Z,85.34
2023-01-13T01:11:01.817Z,85.15
2023-01-13T01:13:03.620Z,84.91
2023-01-13T01:15:06.996Z,85.06
2023-01-13T01:17:08.774Z,85.01
2023-01-13T01:19:10.792Z,84.99
2023-01-13T01:21:13.666Z,85.03
2023-01-13T01:23:16.784Z,84.99
2023-01-13T01:25:18.452Z,85.25
2023-01-13T01:27:20.143Z,85.24
2023-01-13T01:29:21.906Z,84.96
2023-01-13T01:31:26.197Z,85.16
2023-01-13T01:33:28.387Z,84.82
2023-01-13T01:35:30.239Z,84.87
2023-01-13T01:37:33.184Z,84.98
2023-01-13T01:39:36.404Z,85.17
2023-01-13T01:41:38.414Z,84.62
2023-01-13T01:43:53.594Z,84.83
2023-01-13T01:45:55.281Z,84.98
2023-01-13T01:47:59.923Z,85.06
2023-01-13T01:50:03.808Z,84.98
2023-01-13T01:52:09.312Z,84.77
2023-01-13T01:54:15.464Z,84.94
2023-01-13T01:56:19.923Z,84.46
2023-01-13T01:58:25.545Z,84.54
2023-01-13T02:00:29.137Z,84.60
2023-01-13T02:02:31.427Z,84.46
2023-01-13T02:04:37.135Z,84.24
2023-01-13T02:06:39.657Z,84.33
2023-01-13T02:08:41.700Z,84.69
2023-01-13T02:10:48.141Z,84.67
2023-01-13T02:12:52.998Z,84.74
2023-01-13T02:14:55.208Z,84.44
2023-01-13T02:17:15.546Z,84.36
2023-01-13T02:19:39.323Z,84.74
2023-01-13T02:22:07.219Z,84.45
2023-01-13T02:24:29.759Z,84.53
2023-01-13T02:27:08.783Z,84.54
2023-01-13T02:29:28.021Z,84.54
2023-01-13T02:31:32.889Z,84.43
2023-01-13T02:33:47.139Z,84.22
2023-01-13T02:35:55.812Z,84.25
2023-01-13T02:38:00.533Z,84.21
2023-01-13T02:40:08.381Z,83.97
2023-01-13T02:42:16.037Z,84.55
2023-01-13T02:44:24.289Z,84.09
2023-01-13T02:46:31.809Z,84.36
2023-01-13T02:48:38.252Z,84.41
2023-01-13T02:50:59.927Z,84.61
2023-01-13T02:53:08.468Z,84.74
2023-01-13T02:55:15.502Z,84.33
2023-01-13T02:57:20.689Z,84.41
2023-01-13T02:59:23.213Z,84.49
2023-01-13T03:01:25.556Z,84.78
2023-01-13T03:03:28.600Z,84.66
2023-01-13T03:05:33.072Z,84.42
2023-01-13T03:07:57.962Z,85.01
2023-01-13T03:10:07.306Z,84.52
2023-01-13T03:12:15.861Z,84.48
2023-01-13T03:14:36.086Z,84.95
2023-01-13T03:17:11.788Z,85.30
2023-01-13T03:19:28.075Z,85.44
2023-01-13T03:21:38.493Z,85.27
2023-01-13T03:23:50.520Z,85.60
2023-01-13T03:26:02.521Z,85.19
2023-01-13T03:28:09.313Z,85.52
2023-01-13T03:30:18.105Z,85.59
2023-01-13T03:32:25.561Z,85.06
2023-01-13T03:34:33.619Z,85.32
2023-01-13T03:36:40.338Z,85.48
2023-01-13T03:38:45.718Z,85.21
2023-01-13T03:40:52.150Z,85.71
2023-01-13T03:43:00.242Z,85.73
2023-01-13T03:45:07.560Z,85.45
2023-01-13T03:47:20.570Z,85.70
2023-01-13T03:49:25.779Z,85.39
2023-01-13T03:51:32.758Z,85.39
2023-01-13T03:53:39.256Z,85.24
2023-01-13T03:55:45.408Z,84.79
2023-01-13T03:57:59.659Z,84.82
2023-01-13T04:00:02.972Z,83.85
2023-01-13T04:02:09.405Z,83.65
2023-01-13T04:04:16.114Z,83.44
2023-01-13T04:06:23.615Z,83.30
2023-01-13T04:08:29.011Z,83.56
2023-01-13T04:10:34.650Z,83.20
2023-01-13T04:12:40.511Z,82.89
2023-01-13T04:14:43.634Z,82.84
2023-01-13T04:16:45.258Z,82.41
2023-01-13T04:18:50.289Z,83.08
2023-01-13T04:20:53.867Z,82.57
2023-01-13T04:22:55.383Z,81.08
2023-01-13T04:24:58.296Z,81.12
2023-01-13T04:26:59.999Z,80.85
2023-01-13T04:29:01.565Z,80.54
2023-01-13T04:31:03.301Z,80.63
2023-01-13T04:33:05.794Z,80.11
2023-01-13T04:35:07.945Z,79.73
2023-01-13T04:37:09.511Z,79.60
2023-01-13T04:39:11.086Z,79.38
2023-01-13T04:41:14.138Z,79.60
2023-01-13T04:43:16.420Z,79.23
2023-01-13T04:45:18.038Z,78.42
2023-01-13T04:47:19.725Z,77.81
2023-01-13T04:49:21.342Z,77.44
2023-01-13T04:51:22.940Z,77.84
2023-01-13T04:53:24.517Z,78.03
2023-01-13T04:55:26.161Z,78.20
2023-01-13T04:57:29.701Z,78.66
2023-01-13T04:59:32.805Z,78.58
2023-01-13T05:01:36.120Z,79.16
2023-01-13T05:03:37.701Z,79.44
2023-01-13T05:05:39.288Z,79.86
2023-01-13T05:07:40.859Z,80.16
2023-01-13T05:09:42.793Z,79.90
2023-01-13T05:11:44.479Z,79.74
2023-01-13T05:16:50.809Z,79.69
2023-01-13T05:18:52.557Z,79.76
2023-01-13T05:20:54.057Z,80.07
2023-01-13T05:22:55.504Z,79.33
2023-01-13T05:24:57.157Z,78.96
2023-01-13T05:26:58.567Z,78.98
2023-01-13T05:29:00.246Z,79.25
2023-01-13T05:31:02.002Z,79.23
2023-01-13T05:33:05.098Z,79.21
2023-01-13T05:35:07.476Z,79.69
2023-01-13T05:37:09.226Z,79.01
2023-01-13T05:39:10.797Z,78.67
2023-01-13T05:41:12.512Z,78.54
2023-01-13T05:43:16.287Z,78.07
2023-01-13T05:45:17.931Z,77.75
2023-01-13T05:47:19.496Z,77.92
2023-01-13T05:49:22.424Z,77.91
2023-01-13T05:51:24.038Z,77.78
2023-01-13T05:53:26.118Z,77.71
2023-01-13T05:55:27.801Z,77.70
2023-01-13T05:57:29.421Z,77.45
2023-01-13T05:59:30.950Z,77.73
2023-01-13T06:01:32.730Z,77.42
2023-01-13T06:03:34.280Z,77.32
2023-01-13T06:05:37.951Z,77.10
2023-01-13T06:07:39.616Z,77.34
2023-01-13T06:09:41.200Z,77.21
2023-01-13T06:11:42.965Z,77.71
2023-01-13T06:13:44.594Z,77.33
2023-01-13T06:15:46.495Z,77.67
2023-01-13T06:17:48.600Z,78.28
2023-01-13T06:19:50.538Z,77.93
2023-01-13T06:21:58.375Z,78.36
2023-01-13T06:24:00.295Z,78.53
2023-01-13T06:26:09.539Z,78.95
2023-01-13T06:28:11.232Z,78.38
2023-01-13T06:30:13.386Z,78.76
2023-01-13T06:32:18.640Z,78.60
2023-01-13T06:34:20.345Z,78.78
2023-01-13T06:36:25.374Z,78.44
2023-01-13T06:38:33.478Z,78.89
2023-01-13T06:40:35.670Z,79.00
2023-01-13T06:42:38.794Z,78.45
2023-01-13T06:44:40.605Z,78.43
2023-01-13T06:46:42.524Z,78.69
2023-01-13T06:48:44.120Z,78.37
2023-01-13T06:50:45.843Z,78.32
2023-01-13T06:52:47.471Z,78.85
2023-01-13T06:54:50.399Z,78.29
2023-01-13T06:56:51.939Z,78.25
2023-01-13T06:58:53.468Z,78.30
2023-01-13T07:00:59.347Z,78.13
2023-01-13T07:03:08.731Z,78.98
2023-01-13T07:05:10.407Z,78.15
2023-01-13T07:07:12.353Z,77.97
2023-01-13T07:09:14.233Z,78.04
2023-01-13T07:11:17.335Z,78.06
2023-01-13T07:13:19.197Z,78.13
2023-01-13T07:15:20.993Z,77.93
2023-01-13T07:17:22.464Z,77.67
2023-01-13T07:19:24.073Z,77.83
2023-01-13T07:21:25.763Z,77.73
2023-01-13T07:23:28.544Z,77.92
2023-01-13T07:25:30.079Z,78.10
2023-01-13T07:27:33.072Z,78.15
2023-01-13T07:29:34.823Z,77.80
2023-01-13T07:31:36.678Z,77.48
2023-01-13T07:33:38.352Z,77.97
2023-01-13T07:35:39.935Z,77.60
2023-01-13T07:37:41.677Z,77.33
2023-01-13T07:39:43.245Z,77.51
2023-01-13T07:41:44.765Z,77.73
2023-01-13T07:43:47.848Z,77.75
2023-01-13T07:45:49.460Z,77.74
2023-01-13T07:47:53.923Z,77.25
2023-01-13T07:49:55.629Z,77.92
2023-01-13T07:51:57.640Z,77.87
2023-01-13T07:53:59.212Z,77.34
2023-01-13T07:56:02.875Z,77.74
2023-01-13T07:58:05.824Z,77.23
2023-01-13T08:00:12.917Z,77.70
2023-01-13T08:02:14.761Z,77.48
2023-01-13T08:04:16.449Z,77.81
2023-01-13T08:06:18.150Z,77.23
2023-01-13T08:08:19.957Z,77.95
2023-01-13T08:10:21.543Z,77.98
2023-01-13T08:12:23.110Z,77.65
2023-01-13T08:14:24.749Z,77.84
2023-01-13T08:16:27.903Z,77.56
2023-01-13T08:18:30.756Z,77.40
2023-01-13T08:20:32.273Z,77.89
2023-01-13T08:22:33.793Z,77.77
2023-01-13T08:24:35.520Z,77.48
2023-01-13T08:26:37.054Z,77.23
2023-01-13T08:28:39.295Z,77.54
2023-01-13T08:30:49.133Z,77.92
2023-01-13T08:32:52.067Z,77.98
2023-01-13T08:34:53.545Z,77.54
2023-01-13T08:36:55.322Z,77.20
2023-01-13T08:38:56.887Z,77.40
2023-01-13T08:40:58.656Z,77.60
2023-01-13T08:43:01.080Z,77.42
2023-01-13T08:45:03.156Z,77.66
2023-01-13T08:47:04.968Z,77.45
2023-01-13T08:49:07.982Z,77.57
2023-01-13T08:51:09.793Z,77.62
2023-01-13T08:53:11.536Z,77.51
2023-01-13T08:55:13.155Z,77.09
2023-01-13T08:57:15.077Z,77.23
2023-01-13T08:59:18.962Z,77.69
2023-01-13T09:01:22.807Z,77.43
2023-01-13T09:03:24.659Z,77.25
2023-01-13T09:05:27.571Z,77.20
2023-01-13T09:07:29.290Z,77.02
2023-01-13T09:09:30.784Z,76.58
2023-01-13T09:11:35.554Z,76.44
2023-01-13T09:13:37.120Z,75.63
2023-01-13T09:15:39.694Z,75.63
2023-01-13T09:17:41.280Z,75.29
2023-01-13T09:19:42.937Z,74.39
2023-01-13T09:21:45.988Z,74.47
2023-01-13T09:23:47.773Z,74.20
2023-01-13T09:25:49.411Z,73.65
2023-01-13T09:27:51.168Z,74.01
2023-01-13T09:29:52.876Z,73.90
2023-01-13T09:31:54.611Z,73.48
2023-01-13T09:33:56.140Z,73.50
2023-01-13T09:35:58.225Z,73.16
2023-01-13T09:38:01.241Z,72.99
2023-01-13T09:40:05.211Z,72.33
2023-01-13T09:42:17.495Z,72.68
2023-01-13T09:44:25.155Z,72.36
2023-01-13T09:46:33.448Z,72.21
2023-01-13T09:48:39.417Z,72.51
2023-01-13T09:50:50.824Z,73.01
2023-01-13T09:52:53.155Z,71.83
2023-01-13T09:55:03.361Z,72.09
2023-01-13T09:57:10.180Z,71.60
2023-01-13T09:59:12.748Z,69.57
2023-01-13T10:01:22.928Z,70.42
2023-01-13T10:03:26.628Z,68.71
2023-01-13T10:05:36.215Z,69.98
2023-01-13T10:07:42.638Z,68.67
2023-01-13T10:09:49.721Z,66.48
2023-01-13T10:11:55.838Z,66.60
2023-01-13T10:14:00.951Z,65.81
2023-01-13T10:16:23.410Z,65.61
2023-01-13T10:18:33.293Z,64.84
2023-01-13T10:20:48.873Z,65.64
2023-01-13T10:23:01.982Z,65.12
2023-01-13T10:25:31.735Z,64.72
2023-01-13T10:27:36.901Z,63.45
2023-01-13T10:29:38.554Z,63.25
2023-01-13T10:31:40.136Z,61.70
2023-01-13T10:33:41.816Z,61.15
2023-01-13T10:35:52.369Z,62.65
2023-01-13T10:37:57.665Z,62.29
2023-01-13T10:40:02.569Z,61.29
2023-01-13T10:42:05.531Z,60.08
2023-01-13T10:44:15.780Z,62.10
2023-01-13T10:46:18.838Z,58.94
2023-01-13T10:48:20.474Z,58.35
2023-01-13T10:50:26.841Z,58.63
2023-01-13T10:52:30.493Z,58.01
2023-01-13T10:54:52.725Z,60.18
2023-01-13T10:57:14.442Z,59.85
2023-01-13T10:59:22.270Z,58.67
2023-01-13T11:01:26.184Z,55.42
2023-01-13T11:03:36.390Z,56.88
2023-01-13T11:05:37.887Z,56.06
2023-01-13T11:07:41.403Z,53.98
2023-01-13T11:09:43.412Z,53.04
2023-01-13T11:11:46.079Z,54.58
2023-01-13T11:13:50.594Z,55.94
2023-01-13T11:15:57.862Z,56.66
2023-01-13T11:18:03.637Z,56.87
2023-01-13T11:20:17.304Z,57.99
2023-01-13T11:22:25.745Z,56.42
2023-01-13T11:24:37.653Z,57.29
2023-01-13T11:26:47.643Z,57.46
2023-01-13T11:28:58.062Z,57.54
2023-01-13T11:31:10.927Z,57.81
2023-01-13T11:33:30.599Z,57.52
2023-01-13T11:35:35.884Z,57.53
2023-01-13T11:37:47.328Z,58.60
2023-01-13T11:39:54.698Z,58.48
2023-01-13T11:42:01.410Z,58.52
2023-01-13T11:44:15.796Z,59.96
2023-01-13T11:46:21.435Z,58.49
2023-01-13T11:48:25.059Z,59.46
2023-01-13T11:50:34.507Z,58.25
2023-01-13T11:53:04.663Z,59.20
2023-01-13T11:55:26.711Z,61.42
2023-01-13T11:57:43.282Z,60.60
2023-01-13T12:00:02.751Z,60.55
2023-01-13T12:02:21.825Z,60.55
2023-01-13T12:04:29.398Z,58.64
2023-01-13T12:06:36.083Z,59.01
2023-01-13T12:09:03.867Z,60.68
2023-01-13T12:11:14.246Z,58.60
2023-01-13T12:13:26.728Z,60.17
2023-01-13T12:15:56.148Z,59.98
2023-01-13T12:18:18.651Z,61.03
2023-01-13T12:20:31.655Z,60.80
2023-01-13T12:22:36.036Z,58.91
2023-01-13T12:24:45.426Z,59.87
2023-01-13T12:26:54.349Z,59.49
2023-01-13T12:29:00.658Z,59.36
2023-01-13T12:31:03.708Z,59.98
2023-01-13T12:33:20.535Z,59.53
2023-01-13T12:35:37.650Z,59.62
2023-01-13T12:37:49.517Z,58.55
2023-01-13T12:40:06.056Z,60.38
2023-01-13T12:42:15.108Z,58.98
2023-01-13T12:44:16.652Z,57.43
2023-01-13T12:46:35.687Z,59.74
2023-01-13T12:49:04.912Z,59.08
2023-01-13T12:51:22.018Z,59.46
2023-01-13T12:53:45.813Z,58.52
2023-01-13T12:55:51.778Z,58.39
2023-01-13T12:58:14.393Z,60.34
2023-01-13T13:00:17.275Z,58.07
2023-01-13T13:02:31.592Z,59.99
2023-01-13T13:04:44.941Z,58.65
2023-01-13T13:06:53.512Z,58.12
2023-01-13T13:09:03.752Z,58.22
2023-01-13T13:11:22.256Z,59.09
2023-01-13T13:13:44.153Z,59.49
2023-01-13T13:15:47.185Z,57.95
2023-01-13T13:18:19.415Z,58.08
2023-01-13T13:20:53.614Z,57.98
2023-01-13T13:22:56.550Z,57.23
2023-01-13T13:25:21.342Z,59.16
2023-01-13T13:27:28.104Z,58.66
2023-01-13T13:29:50.182Z,60.05
2023-01-13T13:32:17.494Z,56.80
2023-01-13T13:34:28.323Z,58.08
2023-01-13T13:36:53.554Z,58.57
2023-01-13T13:39:16.456Z,57.71
2023-01-13T13:41:20.714Z,58.56
2023-01-13T13:43:22.641Z,58.43
2023-01-13T13:45:26.196Z,58.78
2023-01-13T13:47:35.225Z,59.86
2023-01-13T13:49:39.968Z,58.88
2023-01-13T13:51:47.898Z,59.54
2023-01-13T13:53:49.767Z,58.45
2023-01-13T13:55:58.588Z,60.59
2023-01-13T13:58:01.214Z,60.06
2023-01-13T14:00:09.363Z,60.88
2023-01-13T14:02:19.970Z,61.10
2023-01-13T14:04:25.123Z,59.79
2023-01-13T14:06:27.831Z,60.26
2023-01-13T14:08:31.560Z,60.41
2023-01-13T14:10:38.238Z,60.73
2023-01-13T14:12:41.177Z,59.88
2023-01-13T14:14:43.004Z,59.26
2023-01-13T14:16:44.711Z,59.26
2023-01-13T14:18:48.518Z,59.38
2023-01-13T14:20:55.524Z,60.46
2023-01-13T14:22:57.537Z,60.01
2023-01-13T14:24:59.139Z,60.35
2023-01-13T14:27:08.666Z,61.71
2023-01-13T14:29:18.423Z,61.81
2023-01-13T14:31:20.888Z,59.40
2023-01-13T14:33:28.589Z,60.66
2023-01-13T14:35:30.217Z,60.97
2023-01-13T14:37:35.296Z,60.85
2023-01-13T14:39:40.069Z,60.11
2023-01-13T14:41:46.660Z,61.15
2023-01-13T14:43:50.475Z,60.53
2023-01-13T14:46:04.335Z,62.05
2023-01-13T14:48:09.557Z,61.34
2023-01-13T14:50:19.905Z,61.16
2023-01-13T14:52:26.549Z,60.48
2023-01-13T14:54:43.338Z,60.11
2023-01-13T14:56:52.591Z,59.93
2023-01-13T14:58:54.447Z,60.27
2023-01-13T15:01:40.670Z,61.14
2023-01-13T15:03:42.697Z,60.75
2023-01-13T15:05:46.425Z,61.11
2023-01-13T15:07:50.231Z,60.83
2023-01-13T15:09:54.346Z,60.80
2023-01-13T15:11:55.946Z,61.25
2023-01-13T15:14:00.564Z,61.05
2023-01-13T15:16:05.015Z,61.35
2023-01-13T15:18:14.315Z,63.15
2023-01-13T15:20:17.882Z,62.50
2023-01-13T15:22:19.374Z,62.43
2023-01-13T15:24:20.978Z,63.52
2023-01-13T15:26:25.306Z,64.40
2023-01-13T15:28:28.900Z,65.75
2023-01-13T15:30:31.684Z,65.71
2023-01-13T15:32:34.992Z,65.92
2023-01-13T15:34:38.085Z,66.41
2023-01-13T15:36:39.907Z,65.90
2023-01-13T15:38:41.673Z,66.10
2023-01-13T15:40:44.104Z,66.49
2023-01-13T15:42:46.286Z,66.03
2023-01-13T15:44:47.834Z,65.21
2023-01-13T15:46:51.425Z,66.47
2023-01-13T15:48:55.017Z,65.53
2023-01-13T15:50:58.315Z,66.15
2023-01-13T15:53:00.486Z,65.88
2023-01-13T15:55:02.083Z,66.16
2023-01-13T15:57:03.714Z,65.87
2023-01-13T15:59:15.912Z,66.44
2023-01-13T16:01:19.725Z,66.23
2023-01-13T16:03:21.374Z,65.47
2023-01-13T16:05:24.832Z,65.95
2023-01-13T16:07:28.446Z,66.30
2023-01-13T16:09:30.236Z,66.67
2023-01-13T16:11:32.152Z,66.09
2023-01-13T16:13:35.733Z,65.67
2023-01-13T16:15:41.712Z,65.96
2023-01-13T16:17:45.239Z,65.85
2023-01-13T16:19:47.494Z,66.27
2023-01-13T16:21:49.106Z,65.81
2023-01-13T16:23:52.385Z,65.99
2023-01-13T16:25:53.971Z,65.84
2023-01-13T16:27:55.582Z,66.25
2023-01-13T16:29:57.445Z,66.38
2023-01-13T16:32:01.103Z,66.85
2023-01-13T16:34:05.025Z,66.88
2023-01-13T16:36:13.361Z,66.38
2023-01-13T16:38:16.348Z,66.30
2023-01-13T16:40:29.935Z,67.05
2023-01-13T16:42:32.783Z,66.07
2023-01-13T16:44:34.386Z,66.30
2023-01-13T16:46:36.014Z,65.98
2023-01-13T16:48:37.564Z,66.25
2023-01-13T16:50:41.836Z,65.93
2023-01-13T16:52:43.418Z,66.26
2023-01-13T16:54:45.007Z,65.93
2023-01-13T16:56:49.618Z,66.12
2023-01-13T16:58:52.680Z,66.84
2023-01-13T17:00:54.363Z,66.77
2023-01-13T17:02:56.087Z,67.05
2023-01-13T17:04:57.626Z,66.97
2023-01-13T17:07:03.423Z,67.00
2023-01-13T17:09:11.698Z,67.34
2023-01-13T17:11:13.248Z,67.51
2023-01-13T17:13:17.344Z,67.50
2023-01-13T17:15:23.952Z,67.68
2023-01-13T17:17:27.853Z,67.64
2023-01-13T17:19:29.589Z,67.32
2023-01-13T17:21:32.662Z,67.54
2023-01-13T17:23:35.617Z,67.33
2023-01-13T17:25:39.736Z,67.79
2023-01-13T17:27:43.261Z,68.09
2023-01-13T17:29:46.137Z,67.50
2023-01-13T17:31:48.018Z,67.98
2023-01-13T17:33:49.599Z,68.00
2023-01-13T17:35:51.270Z,67.89
2023-01-13T17:37:53.631Z,67.96
2023-01-13T17:39:55.222Z,68.06
2023-01-13T17:41:57.072Z,68.13
2023-01-13T17:43:58.623Z,68.31
2023-01-13T17:46:01.742Z,68.42
2023-01-13T17:48:03.440Z,68.17
2023-01-13T17:50:08.869Z,68.23
2023-01-13T17:52:10.774Z,68.25
2023-01-13T17:54:12.626Z,68.38
2023-01-13T17:56:15.898Z,68.11
2023-01-13T17:58:17.608Z,68.00
2023-01-13T18:00:21.555Z,68.01
2023-01-13T18:02:24.792Z,67.66
2023-01-13T18:04:26.639Z,67.71
2023-01-13T18:06:30.000Z,68.29
2023-01-13T18:08:33.303Z,68.46
2023-01-13T18:10:35.048Z,68.38
2023-01-13T18:12:39.217Z,68.20
2023-01-13T18:14:42.688Z,69.11
2023-01-13T18:16:44.919Z,68.92
2023-01-13T18:18:49.747Z,68.32
2023-01-13T18:20:51.576Z,68.81
2023-01-13T18:22:53.061Z,69.85
2023-01-13T18:24:54.543Z,69.60
2023-01-13T18:26:59.931Z,70.22
2023-01-13T18:29:01.772Z,69.31
2023-01-13T18:31:03.521Z,69.60
2023-01-13T18:33:06.469Z,70.36
2023-01-13T18:35:12.677Z,69.82
2023-01-13T18:37:16.373Z,69.71
2023-01-13T18:39:18.010Z,69.66
2023-01-13T18:41:19.936Z,70.22
2023-01-13T18:43:23.511Z,69.40
2023-01-13T18:45:27.642Z,70.11
2023-01-13T18:47:31.013Z,69.39
2023-01-13T18:49:32.640Z,69.64
2023-01-13T18:51:35.698Z,69.85
2023-01-13T18:53:37.251Z,69.82
2023-01-13T18:55:40.817Z,70.35
2023-01-13T18:57:44.960Z,69.92
2023-01-13T18:59:49.014Z,70.24
2023-01-13T19:01:51.745Z,69.95
2023-01-13T19:03:54.309Z,70.61
2023-01-13T19:06:01.742Z,70.83
2023-01-13T19:08:05.502Z,70.72
2023-01-13T19:10:08.265Z,71.53
2023-01-13T19:12:09.876Z,71.56
2023-01-13T19:14:13.483Z,71.99
2023-01-13T19:16:16.001Z,71.92
2023-01-13T19:18:23.592Z,72.09
2023-01-13T19:20:25.399Z,71.63
2023-01-13T19:22:29.912Z,71.74
2023-01-13T19:24:33.115Z,71.71
2023-01-13T19:26:34.900Z,71.59
2023-01-13T19:28:37.277Z,71.69
2023-01-13T19:30:38.964Z,71.47
2023-01-13T19:32:42.760Z,72.05
2023-01-13T19:34:46.428Z,71.49
2023-01-13T19:36:50.670Z,71.28
2023-01-13T19:38:52.518Z,71.12
2023-01-13T19:40:57.226Z,71.02
2023-01-13T19:42:58.852Z,71.29
2023-01-13T19:45:00.732Z,70.93
2023-01-13T19:47:02.583Z,71.22
2023-01-13T19:49:06.223Z,71.36
2023-01-13T19:51:10.055Z,71.54
2023-01-13T19:53:16.461Z,71.22
2023-01-13T19:55:18.295Z,71.12
2023-01-13T19:57:21.358Z,71.75
2023-01-13T19:59:23.182Z,72.06
2023-01-13T20:01:25.052Z,72.25
2023-01-13T20:03:27.421Z,72.79
2023-01-13T20:05:31.283Z,73.02
2023-01-13T20:07:34.237Z,72.96
2023-01-13T20:09:36.105Z,72.81
2023-01-13T20:11:37.859Z,73.11
2023-01-13T20:13:43.097Z,72.86
2023-01-13T20:15:45.023Z,72.17
2023-01-13T20:17:46.852Z,72.27
2023-01-13T20:19:50.215Z,72.84
2023-01-13T20:21:51.846Z,72.64
2023-01-13T20:23:59.290Z,72.33
2023-01-13T20:26:01.120Z,72.38
2023-01-13T20:28:02.979Z,71.88
2023-01-13T20:30:07.474Z,72.62
2023-01-13T20:32:09.138Z,72.26
2023-01-13T20:34:12.015Z,72.57
2023-01-13T20:36:25.526Z,72.86
2023-01-13T20:38:28.882Z,72.41
2023-01-13T20:40:36.418Z,72.00
2023-01-13T20:42:38.058Z,72.29
2023-01-13T20:44:39.861Z,71.84
2023-01-13T20:46:44.149Z,71.71
2023-01-13T20:48:45.785Z,71.14
2023-01-13T20:50:56.485Z,71.18
2023-01-13T20:53:03.834Z,71.11
2023-01-13T20:55:06.853Z,70.48
2023-01-13T20:57:12.494Z,71.00
2023-01-13T20:59:17.848Z,71.26
2023-01-13T21:01:22.295Z,71.38
2023-01-13T21:03:28.160Z,71.43
2023-01-13T21:05:29.676Z,70.66
2023-01-13T21:07:31.310Z,71.04
2023-01-13T21:09:32.960Z,70.71
2023-01-13T21:11:34.825Z,70.66
2023-01-13T21:13:39.099Z,70.27
2023-01-13T21:15:46.918Z,71.18
2023-01-13T21:17:53.389Z,70.47
2023-01-13T21:20:06.129Z,70.14
2023-01-13T21:22:07.910Z,69.88
2023-01-13T21:24:13.772Z,70.04
2023-01-13T21:26:23.103Z,70.81
2023-01-13T21:28:24.731Z,70.34
2023-01-13T21:30:26.315Z,70.12
2023-01-13T21:32:27.964Z,70.12
2023-01-13T21:34:31.438Z,70.22
2023-01-13T21:36:34.406Z,70.25
2023-01-13T21:38:36.029Z,69.54
2023-01-13T21:40:39.468Z,70.14
2023-01-13T21:42:42.979Z,69.08
2023-01-13T21:44:44.736Z,69.60
2023-01-13T21:46:48.208Z,69.49
2023-01-13T21:48:51.175Z,69.12
2023-01-13T21:50:52.921Z,69.14
2023-01-13T21:52:58.390Z,69.31
2023-01-13T21:55:00.120Z,69.08
2023-01-13T21:57:01.736Z,69.19
2023-01-13T21:59:05.027Z,69.25
2023-01-13T22:01:08.278Z,69.44
2023-01-13T22:03:11.378Z,69.04
2023-01-13T22:05:14.833Z,69.35
2023-01-13T22:07:16.580Z,68.99
2023-01-13T22:09:19.886Z,69.54
2023-01-13T22:11:23.319Z,69.23
2023-01-13T22:13:27.287Z,69.69
2023-01-13T22:15:28.925Z,69.15
2023-01-13T22:17:30.699Z,69.14
2023-01-13T22:19:32.416Z,69.71
2023-01-13T22:21:34.146Z,69.53
2023-01-13T22:23:36.193Z,69.63
2023-01-13T22:25:39.196Z,69.84
2023-01-13T22:27:41.453Z,68.97
2023-01-13T22:29:42.994Z,69.34
2023-01-13T22:31:44.668Z,69.63
2023-01-13T22:33:46.440Z,70.06
2023-01-13T22:35:54.303Z,70.13
2023-01-13T22:37:55.882Z,69.79
2023-01-13T22:39:57.448Z,69.65
2023-01-13T22:42:00.480Z,70.11
2023-01-13T22:44:01.940Z,69.91
2023-01-13T22:46:05.707Z,69.74
2023-01-13T22:48:07.485Z,69.54
2023-01-13T22:50:10.380Z,69.69
2023-01-13T22:52:12.057Z,69.81
2023-01-13T22:54:17.405Z,70.07
2023-01-13T22:56:20.668Z,70.04
2023-01-13T22:58:24.105Z,70.25
2023-01-13T23:00:25.692Z,70.62
2023-01-13T23:02:27.276Z,70.25
2023-01-13T23:04:29.022Z,70.25
2023-01-13T23:06:32.779Z,70.51
2023-01-13T23:08:34.904Z,70.28
2023-01-13T23:10:36.415Z,69.97
2023-01-13T23:12:38.051Z,70.31
2023-01-13T23:14:40.975Z,70.66
2023-01-13T23:16:42.553Z,70.43
2023-01-13T23:18:44.505Z,70.61
2023-01-13T23:20:46.253Z,70.47
2023-01-13T23:22:47.813Z,70.30
2023-01-13T23:24:49.383Z,70.91
2023-01-13T23:26:50.983Z,71.17
2023-01-13T23:28:52.524Z,70.99
2023-01-13T23:30:55.546Z,70.57
2023-01-13T23:32:57.262Z,70.81
2023-01-13T23:34:58.861Z,70.57
2023-01-13T23:37:00.598Z,70.92
2023-01-13T23:39:02.238Z,71.00
2023-01-13T23:41:05.733Z,71.15
2023-01-13T23:43:07.431Z,71.07
2023-01-13T23:45:10.974Z,71.18
2023-01-13T23:47:13.897Z,70.68
2023-01-13T23:49:15.397Z,70.86
2023-01-13T23:51:17.355Z,70.52
2023-01-13T23:53:19.022Z,70.82
2023-01-13T23:55:20.618Z,70.67
2023-01-13T23:57:25.845Z,70.54
2023-01-13T23:59:31.002Z,70.05
